Lacrosse, WA

11:09 PM PST on March 04, 2015 (GMT -0800)
KWACOLFA2 | Change Station
CLOSE
Current Station
Personal Weather Station
Location: Onecho, WA
Elevation: 1749 ft
Nearby Weather Stations

Elev 1749 ft 46.73 °N, 117.54 °W | Updated 12 minutes ago

Clear
Clear
37.4 °F
Feels Like 33 °F
N
6.0
Wind Variable Wind from East
Gusts 11.0 mph

Today
High -- | Low -- °F
--% Chance of Precip.
Yesterday
High -- | Low -- °F
Precip. -- in
6:25 AM 5:41 PM
Full, 100% visible
Pressure 30.34 in
Visibility 10.0 miles
Clouds Clear
Windchill 33 °F
Dew Point 14 °F
Humidity 39%
Rainfall in
Snow Depth Not available.
UV 0 out of 12
Pollen 4.20 out of 12
Air Quality Not available.
Flu Activity Not available.
METAR KPUW 050653Z AUTO 09010KT 10SM CLR M01/M11 A3027 RMK AO2 SLP273 T10061111

More Conditions Fewer Conditions

Pressure 30.34 in
Visibility 10.0 miles
Clouds Clear
Windchill 33 °F
Dew Point 14 °F
Humidity 39%
Rainfall in
Snow Depth Not available.
UV 0 out of 12
Pollen 4.20 out of 12
Air Quality Not available.
Flu Activity Not available.
METAR KPUW 050653Z AUTO 09010KT 10SM CLR M01/M11 A3027 RMK AO2 SLP273 T10061111

More Conditions Fewer Conditions

10-Day Weather Forecast

Almanac

Astronomy

Mar. 04, 2015 Rise Set
Actual Time
Civil Twilight
Nautical Twilight
Astronomical Twilight
Moon
Length of Visible Light
Length of Day
Tomorrow will be .
, % of the Moon is Illuminated

Today's Extremes

State Highs State Lows

Community

WunderPhotos

Upload Photos

1,802,689 photos uploaded!

WunderBlogs® & News

Nearby

Air Quality

  Air Quality AQ Index Pollutant
Not available.

Snow Depth

Station Depth Elevation

Earthquake Activity

City Distance Mag. Time & Date
Minimum magnitude displayed is 2.5.

Coastal Water Temperatures

Place Temperature

Nearby Weather Stations